sensor_id;sensor_type;location;lat;lon;timestamp;P1;durP1;ratioP1;P2;durP2;ratioP2
38859;SDS011;24609;48.316;16.174;2023-10-31T00:00:44;6.03;;;2.33;;
38859;SDS011;24609;48.316;16.174;2023-10-31T00:03:10;5.32;;;2.10;;
38859;SDS011;24609;48.316;16.174;2023-10-31T00:05:35;5.00;;;2.58;;
38859;SDS011;24609;48.316;16.174;2023-10-31T00:08:01;4.72;;;2.00;;
38859;SDS011;24609;48.316;16.174;2023-10-31T00:10:27;4.63;;;1.83;;
38859;SDS011;24609;48.316;16.174;2023-10-31T00:12:53;5.63;;;2.58;;
38859;SDS011;24609;48.316;16.174;2023-10-31T00:15:18;3.70;;;2.13;;
38859;SDS011;24609;48.316;16.174;2023-10-31T00:17:44;6.47;;;2.28;;
38859;SDS011;24609;48.316;16.174;2023-10-31T00:20:10;3.80;;;1.90;;
38859;SDS011;24609;48.316;16.174;2023-10-31T00:22:35;4.85;;;2.20;;
38859;SDS011;24609;48.316;16.174;2023-10-31T00:25:01;5.32;;;2.35;;
38859;SDS011;24609;48.316;16.174;2023-10-31T00:27:27;4.38;;;2.25;;
38859;SDS011;24609;48.316;16.174;2023-10-31T00:29:53;8.10;;;2.50;;
38859;SDS011;24609;48.316;16.174;2023-10-31T00:32:18;10.90;;;2.67;;
38859;SDS011;24609;48.316;16.174;2023-10-31T00:34:44;4.75;;;2.20;;
38859;SDS011;24609;48.316;16.174;2023-10-31T00:37:09;5.00;;;2.15;;
38859;SDS011;24609;48.316;16.174;2023-10-31T00:39:36;5.07;;;2.63;;
38859;SDS011;24609;48.316;16.174;2023-10-31T00:42:01;5.82;;;2.08;;
38859;SDS011;24609;48.316;16.174;2023-10-31T00:44:27;5.75;;;2.60;;
38859;SDS011;24609;48.316;16.174;2023-10-31T00:46:53;8.05;;;2.42;;
38859;SDS011;24609;48.316;16.174;2023-10-31T00:49:18;2.97;;;1.70;;
38859;SDS011;24609;48.316;16.174;2023-10-31T00:51:44;7.30;;;2.17;;
38859;SDS011;24609;48.316;16.174;2023-10-31T00:54:10;5.18;;;2.28;;
38859;SDS011;24609;48.316;16.174;2023-10-31T00:56:35;5.10;;;2.15;;
38859;SDS011;24609;48.316;16.174;2023-10-31T00:59:01;6.25;;;2.20;;
38859;SDS011;24609;48.316;16.174;2023-10-31T01:01:27;8.95;;;2.35;;
38859;SDS011;24609;48.316;16.174;2023-10-31T01:03:52;4.28;;;2.10;;
38859;SDS011;24609;48.316;16.174;2023-10-31T01:06:18;5.70;;;2.20;;
38859;SDS011;24609;48.316;16.174;2023-10-31T01:08:43;6.85;;;2.55;;
38859;SDS011;24609;48.316;16.174;2023-10-31T01:11:09;4.65;;;2.00;;
38859;SDS011;24609;48.316;16.174;2023-10-31T01:13:35;7.43;;;2.17;;
38859;SDS011;24609;48.316;16.174;2023-10-31T01:16:00;4.85;;;2.20;;
38859;SDS011;24609;48.316;16.174;2023-10-31T01:18:26;5.57;;;2.42;;
38859;SDS011;24609;48.316;16.174;2023-10-31T01:20:52;6.47;;;2.15;;
38859;SDS011;24609;48.316;16.174;2023-10-31T01:23:17;4.30;;;2.38;;
38859;SDS011;24609;48.316;16.174;2023-10-31T01:25:43;8.18;;;2.20;;
38859;SDS011;24609;48.316;16.174;2023-10-31T01:28:09;6.80;;;2.40;;
38859;SDS011;24609;48.316;16.174;2023-10-31T01:30:34;6.20;;;2.33;;
38859;SDS011;24609;48.316;16.174;2023-10-31T01:33:00;5.97;;;2.25;;
38859;SDS011;24609;48.316;16.174;2023-10-31T01:35:26;3.65;;;2.35;;
38859;SDS011;24609;48.316;16.174;2023-10-31T01:37:52;5.68;;;2.30;;
38859;SDS011;24609;48.316;16.174;2023-10-31T01:40:18;5.60;;;2.70;;
38859;SDS011;24609;48.316;16.174;2023-10-31T01:42:43;11.77;;;2.80;;
38859;SDS011;24609;48.316;16.174;2023-10-31T01:45:10;7.05;;;2.50;;
38859;SDS011;24609;48.316;16.174;2023-10-31T01:47:36;4.10;;;1.90;;
38859;SDS011;24609;48.316;16.174;2023-10-31T01:50:02;5.38;;;2.40;;
38859;SDS011;24609;48.316;16.174;2023-10-31T01:52:28;6.93;;;2.63;;
38859;SDS011;24609;48.316;16.174;2023-10-31T01:57:23;5.72;;;2.22;;
38859;SDS011;24609;48.316;16.174;2023-10-31T01:59:49;7.80;;;2.97;;
38859;SDS011;24609;48.316;16.174;2023-10-31T02:02:15;7.38;;;2.15;;
38859;SDS011;24609;48.316;16.174;2023-10-31T02:04:41;9.65;;;2.72;;
38859;SDS011;24609;48.316;16.174;2023-10-31T02:07:07;4.35;;;2.20;;
38859;SDS011;24609;48.316;16.174;2023-10-31T02:09:32;6.85;;;2.30;;
38859;SDS011;24609;48.316;16.174;2023-10-31T02:11:58;4.03;;;2.40;;
38859;SDS011;24609;48.316;16.174;2023-10-31T02:14:24;6.88;;;2.58;;
38859;SDS011;24609;48.316;16.174;2023-10-31T02:16:50;3.95;;;2.20;;
38859;SDS011;24609;48.316;16.174;2023-10-31T02:19:20;5.30;;;2.40;;
38859;SDS011;24609;48.316;16.174;2023-10-31T02:21:46;5.85;;;2.65;;
38859;SDS011;24609;48.316;16.174;2023-10-31T02:24:11;4.78;;;2.53;;
38859;SDS011;24609;48.316;16.174;2023-10-31T02:26:37;3.20;;;2.05;;
38859;SDS011;24609;48.316;16.174;2023-10-31T02:29:03;5.25;;;2.17;;
38859;SDS011;24609;48.316;16.174;2023-10-31T02:31:29;3.97;;;2.22;;
38859;SDS011;24609;48.316;16.174;2023-10-31T02:33:55;6.35;;;2.42;;
38859;SDS011;24609;48.316;16.174;2023-10-31T02:36:21;5.05;;;2.15;;
38859;SDS011;24609;48.316;16.174;2023-10-31T02:38:48;5.05;;;1.92;;
38859;SDS011;24609;48.316;16.174;2023-10-31T02:41:13;6.60;;;2.47;;
38859;SDS011;24609;48.316;16.174;2023-10-31T02:43:40;2.85;;;2.17;;
38859;SDS011;24609;48.316;16.174;2023-10-31T02:46:06;4.65;;;3.10;;
38859;SDS011;24609;48.316;16.174;2023-10-31T02:48:32;5.78;;;4.93;;
38859;SDS011;24609;48.316;16.174;2023-10-31T02:51:04;5.43;;;4.72;;
38859;SDS011;24609;48.316;16.174;2023-10-31T02:53:32;8.95;;;5.50;;
38859;SDS011;24609;48.316;16.174;2023-10-31T02:55:58;7.63;;;4.57;;
38859;SDS011;24609;48.316;16.174;2023-10-31T02:58:23;5.95;;;4.28;;
38859;SDS011;24609;48.316;16.174;2023-10-31T03:00:49;6.70;;;4.38;;
38859;SDS011;24609;48.316;16.174;2023-10-31T03:03:15;6.35;;;3.90;;
38859;SDS011;24609;48.316;16.174;2023-10-31T03:05:41;5.03;;;3.72;;
38859;SDS011;24609;48.316;16.174;2023-10-31T03:08:06;3.78;;;3.38;;
38859;SDS011;24609;48.316;16.174;2023-10-31T03:10:35;4.45;;;3.00;;
38859;SDS011;24609;48.316;16.174;2023-10-31T03:13:01;3.00;;;2.50;;
38859;SDS011;24609;48.316;16.174;2023-10-31T03:15:27;3.10;;;2.80;;
38859;SDS011;24609;48.316;16.174;2023-10-31T03:17:53;3.55;;;2.63;;
38859;SDS011;24609;48.316;16.174;2023-10-31T03:20:18;2.67;;;2.20;;
38859;SDS011;24609;48.316;16.174;2023-10-31T03:22:44;6.72;;;2.25;;
38859;SDS011;24609;48.316;16.174;2023-10-31T03:25:10;2.92;;;2.25;;
38859;SDS011;24609;48.316;16.174;2023-10-31T03:27:36;3.10;;;2.20;;
38859;SDS011;24609;48.316;16.174;2023-10-31T03:30:01;2.10;;;1.70;;
38859;SDS011;24609;48.316;16.174;2023-10-31T03:32:27;1.60;;;1.50;;
38859;SDS011;24609;48.316;16.174;2023-10-31T03:34:53;1.70;;;1.42;;
38859;SDS011;24609;48.316;16.174;2023-10-31T03:37:19;2.22;;;1.50;;
38859;SDS011;24609;48.316;16.174;2023-10-31T03:39:44;1.55;;;1.30;;
38859;SDS011;24609;48.316;16.174;2023-10-31T03:42:10;1.48;;;1.20;;
38859;SDS011;24609;48.316;16.174;2023-10-31T03:44:36;2.00;;;1.25;;
38859;SDS011;24609;48.316;16.174;2023-10-31T03:47:02;1.77;;;1.30;;
38859;SDS011;24609;48.316;16.174;2023-10-31T03:49:27;1.40;;;1.20;;
38859;SDS011;24609;48.316;16.174;2023-10-31T03:51:53;1.58;;;1.35;;
38859;SDS011;24609;48.316;16.174;2023-10-31T03:54:19;1.33;;;1.20;;
38859;SDS011;24609;48.316;16.174;2023-10-31T03:56:44;1.23;;;1.00;;
38859;SDS011;24609;48.316;16.174;2023-10-31T03:59:10;1.50;;;1.13;;
38859;SDS011;24609;48.316;16.174;2023-10-31T04:01:35;1.17;;;1.08;;
38859;SDS011;24609;48.316;16.174;2023-10-31T04:04:01;1.70;;;1.30;;
38859;SDS011;24609;48.316;16.174;2023-10-31T04:06:27;1.27;;;1.17;;
38859;SDS011;24609;48.316;16.174;2023-10-31T04:08:53;2.00;;;1.23;;
38859;SDS011;24609;48.316;16.174;2023-10-31T04:11:19;1.30;;;1.15;;
38859;SDS011;24609;48.316;16.174;2023-10-31T04:13:45;1.70;;;1.20;;
38859;SDS011;24609;48.316;16.174;2023-10-31T04:16:10;1.20;;;1.00;;
38859;SDS011;24609;48.316;16.174;2023-10-31T04:18:37;1.40;;;1.15;;
38859;SDS011;24609;48.316;16.174;2023-10-31T04:21:02;1.75;;;1.30;;
38859;SDS011;24609;48.316;16.174;2023-10-31T04:23:28;1.70;;;1.60;;
38859;SDS011;24609;48.316;16.174;2023-10-31T04:25:54;1.63;;;1.23;;
38859;SDS011;24609;48.316;16.174;2023-10-31T04:28:20;2.58;;;1.48;;
38859;SDS011;24609;48.316;16.174;2023-10-31T04:30:45;2.00;;;1.50;;
38859;SDS011;24609;48.316;16.174;2023-10-31T04:33:11;2.80;;;1.65;;
38859;SDS011;24609;48.316;16.174;2023-10-31T04:35:37;1.98;;;1.50;;
38859;SDS011;24609;48.316;16.174;2023-10-31T04:38:02;2.38;;;1.50;;
38859;SDS011;24609;48.316;16.174;2023-10-31T04:40:28;3.00;;;1.42;;
38859;SDS011;24609;48.316;16.174;2023-10-31T04:42:54;1.90;;;1.67;;
38859;SDS011;24609;48.316;16.174;2023-10-31T04:45:20;1.85;;;1.67;;
38859;SDS011;24609;48.316;16.174;2023-10-31T04:47:45;1.70;;;1.48;;
38859;SDS011;24609;48.316;16.174;2023-10-31T04:50:11;1.60;;;1.48;;
38859;SDS011;24609;48.316;16.174;2023-10-31T04:52:37;1.88;;;1.50;;
38859;SDS011;24609;48.316;16.174;2023-10-31T04:55:02;1.55;;;1.35;;
38859;SDS011;24609;48.316;16.174;2023-10-31T04:57:28;1.60;;;1.23;;
38859;SDS011;24609;48.316;16.174;2023-10-31T04:59:54;1.50;;;1.20;;
38859;SDS011;24609;48.316;16.174;2023-10-31T05:02:22;3.30;;;1.20;;
38859;SDS011;24609;48.316;16.174;2023-10-31T05:04:48;1.13;;;1.02;;
38859;SDS011;24609;48.316;16.174;2023-10-31T05:07:16;2.65;;;1.13;;
38859;SDS011;24609;48.316;16.174;2023-10-31T05:09:42;2.28;;;1.23;;
38859;SDS011;24609;48.316;16.174;2023-10-31T05:12:08;1.67;;;1.02;;
38859;SDS011;24609;48.316;16.174;2023-10-31T05:14:33;2.25;;;1.00;;
38859;SDS011;24609;48.316;16.174;2023-10-31T05:16:59;1.52;;;1.00;;
38859;SDS011;24609;48.316;16.174;2023-10-31T05:19:25;1.00;;;0.80;;
38859;SDS011;24609;48.316;16.174;2023-10-31T05:21:51;1.10;;;0.77;;
38859;SDS011;24609;48.316;16.174;2023-10-31T05:24:16;1.00;;;0.82;;
38859;SDS011;24609;48.316;16.174;2023-10-31T05:26:42;1.60;;;1.00;;
38859;SDS011;24609;48.316;16.174;2023-10-31T05:29:08;1.83;;;1.10;;
38859;SDS011;24609;48.316;16.174;2023-10-31T05:31:34;1.27;;;1.10;;
38859;SDS011;24609;48.316;16.174;2023-10-31T05:34:00;2.03;;;1.27;;
38859;SDS011;24609;48.316;16.174;2023-10-31T05:36:26;2.78;;;1.15;;
38859;SDS011;24609;48.316;16.174;2023-10-31T05:38:53;1.10;;;0.80;;
38859;SDS011;24609;48.316;16.174;2023-10-31T05:41:19;1.27;;;1.00;;
38859;SDS011;24609;48.316;16.174;2023-10-31T05:43:44;2.45;;;0.95;;
38859;SDS011;24609;48.316;16.174;2023-10-31T05:46:10;0.93;;;0.60;;
38859;SDS011;24609;48.316;16.174;2023-10-31T05:48:38;1.15;;;0.85;;
38859;SDS011;24609;48.316;16.174;2023-10-31T05:51:04;0.75;;;0.75;;
38859;SDS011;24609;48.316;16.174;2023-10-31T05:53:36;1.88;;;0.60;;
38859;SDS011;24609;48.316;16.174;2023-10-31T05:56:02;0.63;;;0.50;;
38859;SDS011;24609;48.316;16.174;2023-10-31T05:58:28;1.20;;;0.80;;
38859;SDS011;24609;48.316;16.174;2023-10-31T06:00:53;1.33;;;0.60;;
38859;SDS011;24609;48.316;16.174;2023-10-31T06:03:19;2.13;;;0.90;;
38859;SDS011;24609;48.316;16.174;2023-10-31T06:05:45;0.73;;;0.70;;
38859;SDS011;24609;48.316;16.174;2023-10-31T06:08:11;1.45;;;0.73;;
38859;SDS011;24609;48.316;16.174;2023-10-31T06:10:37;0.80;;;0.60;;
38859;SDS011;24609;48.316;16.174;2023-10-31T06:13:02;0.95;;;0.80;;
38859;SDS011;24609;48.316;16.174;2023-10-31T06:15:28;0.60;;;0.60;;
38859;SDS011;24609;48.316;16.174;2023-10-31T06:17:54;0.80;;;0.70;;
38859;SDS011;24609;48.316;16.174;2023-10-31T06:20:19;1.02;;;0.75;;
38859;SDS011;24609;48.316;16.174;2023-10-31T06:22:45;0.82;;;0.60;;
38859;SDS011;24609;48.316;16.174;2023-10-31T06:25:11;1.02;;;0.88;;
38859;SDS011;24609;48.316;16.174;2023-10-31T06:27:36;2.10;;;0.77;;
38859;SDS011;24609;48.316;16.174;2023-10-31T06:30:02;0.70;;;0.55;;
38859;SDS011;24609;48.316;16.174;2023-10-31T06:32:28;1.00;;;0.60;;
38859;SDS011;24609;48.316;16.174;2023-10-31T06:34:53;0.70;;;0.50;;
38859;SDS011;24609;48.316;16.174;2023-10-31T06:37:19;0.60;;;0.40;;
38859;SDS011;24609;48.316;16.174;2023-10-31T06:39:45;0.70;;;0.50;;
38859;SDS011;24609;48.316;16.174;2023-10-31T06:42:10;0.43;;;0.43;;
38859;SDS011;24609;48.316;16.174;2023-10-31T06:44:36;1.02;;;0.75;;
38859;SDS011;24609;48.316;16.174;2023-10-31T06:47:02;0.43;;;0.30;;
38859;SDS011;24609;48.316;16.174;2023-10-31T06:49:27;0.30;;;0.30;;
38859;SDS011;24609;48.316;16.174;2023-10-31T06:51:53;0.60;;;0.40;;
38859;SDS011;24609;48.316;16.174;2023-10-31T06:54:19;0.77;;;0.32;;
38859;SDS011;24609;48.316;16.174;2023-10-31T06:56:44;0.63;;;0.40;;
38859;SDS011;24609;48.316;16.174;2023-10-31T06:59:10;0.30;;;0.30;;
38859;SDS011;24609;48.316;16.174;2023-10-31T07:01:36;0.40;;;0.40;;
38859;SDS011;24609;48.316;16.174;2023-10-31T07:04:02;0.40;;;0.30;;
38859;SDS011;24609;48.316;16.174;2023-10-31T07:06:29;0.30;;;0.30;;
38859;SDS011;24609;48.316;16.174;2023-10-31T07:08:54;1.85;;;0.32;;
38859;SDS011;24609;48.316;16.174;2023-10-31T07:11:20;1.17;;;0.40;;
38859;SDS011;24609;48.316;16.174;2023-10-31T07:13:45;0.75;;;0.40;;
38859;SDS011;24609;48.316;16.174;2023-10-31T07:16:11;0.30;;;0.30;;
38859;SDS011;24609;48.316;16.174;2023-10-31T07:18:37;0.30;;;0.30;;
38859;SDS011;24609;48.316;16.174;2023-10-31T07:21:03;0.73;;;0.38;;
38859;SDS011;24609;48.316;16.174;2023-10-31T07:23:29;0.85;;;0.20;;
38859;SDS011;24609;48.316;16.174;2023-10-31T07:25:55;5.88;;;0.52;;
38859;SDS011;24609;48.316;16.174;2023-10-31T07:28:20;0.20;;;0.20;;
38859;SDS011;24609;48.316;16.174;2023-10-31T07:30:46;0.98;;;0.38;;
38859;SDS011;24609;48.316;16.174;2023-10-31T07:33:11;1.67;;;0.50;;
38859;SDS011;24609;48.316;16.174;2023-10-31T07:35:37;0.60;;;0.32;;
38859;SDS011;24609;48.316;16.174;2023-10-31T07:38:03;0.52;;;0.35;;
38859;SDS011;24609;48.316;16.174;2023-10-31T07:40:28;0.55;;;0.50;;
38859;SDS011;24609;48.316;16.174;2023-10-31T07:42:54;0.60;;;0.47;;
38859;SDS011;24609;48.316;16.174;2023-10-31T07:45:20;0.60;;;0.50;;
38859;SDS011;24609;48.316;16.174;2023-10-31T07:47:45;0.43;;;0.43;;
38859;SDS011;24609;48.316;16.174;2023-10-31T07:50:11;0.30;;;0.30;;
38859;SDS011;24609;48.316;16.174;2023-10-31T07:52:38;1.45;;;0.45;;
38859;SDS011;24609;48.316;16.174;2023-10-31T07:55:04;0.90;;;0.40;;
38859;SDS011;24609;48.316;16.174;2023-10-31T07:57:29;0.93;;;0.32;;
38859;SDS011;24609;48.316;16.174;2023-10-31T07:59:55;0.32;;;0.30;;
38859;SDS011;24609;48.316;16.174;2023-10-31T08:02:21;1.00;;;0.40;;
38859;SDS011;24609;48.316;16.174;2023-10-31T08:04:46;0.50;;;0.40;;
38859;SDS011;24609;48.316;16.174;2023-10-31T08:07:12;0.40;;;0.30;;
38859;SDS011;24609;48.316;16.174;2023-10-31T08:09:38;0.40;;;0.38;;
38859;SDS011;24609;48.316;16.174;2023-10-31T08:12:03;0.32;;;0.30;;
38859;SDS011;24609;48.316;16.174;2023-10-31T08:14:29;0.30;;;0.30;;
38859;SDS011;24609;48.316;16.174;2023-10-31T08:16:55;0.68;;;0.30;;
38859;SDS011;24609;48.316;16.174;2023-10-31T08:19:21;2.75;;;0.30;;
38859;SDS011;24609;48.316;16.174;2023-10-31T08:21:46;0.73;;;0.30;;
38859;SDS011;24609;48.316;16.174;2023-10-31T08:24:12;1.65;;;0.30;;
38859;SDS011;24609;48.316;16.174;2023-10-31T08:26:38;1.17;;;0.30;;
38859;SDS011;24609;48.316;16.174;2023-10-31T08:29:04;1.27;;;0.35;;
38859;SDS011;24609;48.316;16.174;2023-10-31T08:31:30;0.47;;;0.30;;
38859;SDS011;24609;48.316;16.174;2023-10-31T08:33:55;0.75;;;0.20;;
38859;SDS011;24609;48.316;16.174;2023-10-31T08:36:21;0.57;;;0.40;;
38859;SDS011;24609;48.316;16.174;2023-10-31T08:38:46;0.75;;;0.40;;
38859;SDS011;24609;48.316;16.174;2023-10-31T08:41:14;0.45;;;0.30;;
38859;SDS011;24609;48.316;16.174;2023-10-31T08:43:44;0.80;;;0.50;;
38859;SDS011;24609;48.316;16.174;2023-10-31T08:46:13;0.82;;;0.30;;
38859;SDS011;24609;48.316;16.174;2023-10-31T08:48:39;1.60;;;0.40;;
38859;SDS011;24609;48.316;16.174;2023-10-31T08:51:05;0.65;;;0.38;;
38859;SDS011;24609;48.316;16.174;2023-10-31T08:53:30;0.80;;;0.30;;
38859;SDS011;24609;48.316;16.174;2023-10-31T08:55:56;0.65;;;0.40;;
38859;SDS011;24609;48.316;16.174;2023-10-31T08:58:22;0.30;;;0.30;;
38859;SDS011;24609;48.316;16.174;2023-10-31T09:00:48;0.70;;;0.50;;
38859;SDS011;24609;48.316;16.174;2023-10-31T09:03:13;2.95;;;0.30;;
38859;SDS011;24609;48.316;16.174;2023-10-31T09:05:39;1.13;;;0.45;;
38859;SDS011;24609;48.316;16.174;2023-10-31T09:08:05;0.43;;;0.40;;
38859;SDS011;24609;48.316;16.174;2023-10-31T09:10:32;0.52;;;0.30;;
38859;SDS011;24609;48.316;16.174;2023-10-31T09:12:58;0.40;;;0.30;;
38859;SDS011;24609;48.316;16.174;2023-10-31T09:15:24;0.47;;;0.30;;
38859;SDS011;24609;48.316;16.174;2023-10-31T09:17:50;2.05;;;0.50;;
38859;SDS011;24609;48.316;16.174;2023-10-31T09:20:15;1.90;;;0.40;;
38859;SDS011;24609;48.316;16.174;2023-10-31T09:22:41;0.88;;;0.40;;
38859;SDS011;24609;48.316;16.174;2023-10-31T09:25:07;0.82;;;0.55;;
38859;SDS011;24609;48.316;16.174;2023-10-31T09:27:34;2.25;;;0.75;;
38859;SDS011;24609;48.316;16.174;2023-10-31T09:30:00;0.60;;;0.47;;
38859;SDS011;24609;48.316;16.174;2023-10-31T09:32:25;0.95;;;0.50;;
38859;SDS011;24609;48.316;16.174;2023-10-31T09:34:51;0.70;;;0.50;;
38859;SDS011;24609;48.316;16.174;2023-10-31T09:37:17;1.20;;;0.47;;
38859;SDS011;24609;48.316;16.174;2023-10-31T09:39:43;0.70;;;0.38;;
38859;SDS011;24609;48.316;16.174;2023-10-31T09:42:09;1.08;;;0.70;;
38859;SDS011;24609;48.316;16.174;2023-10-31T09:44:34;0.43;;;0.43;;
38859;SDS011;24609;48.316;16.174;2023-10-31T09:47:00;0.70;;;0.50;;
38859;SDS011;24609;48.316;16.174;2023-10-31T09:49:27;3.08;;;0.60;;
38859;SDS011;24609;48.316;16.174;2023-10-31T09:51:53;2.45;;;0.57;;
38859;SDS011;24609;48.316;16.174;2023-10-31T09:54:19;0.50;;;0.40;;
38859;SDS011;24609;48.316;16.174;2023-10-31T09:56:46;1.67;;;0.68;;
38859;SDS011;24609;48.316;16.174;2023-10-31T09:59:13;1.92;;;0.52;;
38859;SDS011;24609;48.316;16.174;2023-10-31T10:01:40;2.22;;;0.60;;
38859;SDS011;24609;48.316;16.174;2023-10-31T10:04:07;1.25;;;0.73;;
38859;SDS011;24609;48.316;16.174;2023-10-31T10:06:32;1.10;;;0.50;;
38859;SDS011;24609;48.316;16.174;2023-10-31T10:08:59;1.17;;;0.50;;
38859;SDS011;24609;48.316;16.174;2023-10-31T10:11:25;2.63;;;0.60;;
38859;SDS011;24609;48.316;16.174;2023-10-31T10:13:53;3.15;;;1.00;;
38859;SDS011;24609;48.316;16.174;2023-10-31T10:16:29;1.90;;;0.50;;
38859;SDS011;24609;48.316;16.174;2023-10-31T10:18:56;3.65;;;0.70;;
38859;SDS011;24609;48.316;16.174;2023-10-31T10:21:22;3.47;;;0.80;;
38859;SDS011;24609;48.316;16.174;2023-10-31T10:23:47;1.70;;;0.55;;
38859;SDS011;24609;48.316;16.174;2023-10-31T10:26:16;7.50;;;0.93;;
38859;SDS011;24609;48.316;16.174;2023-10-31T10:28:46;1.23;;;0.70;;
38859;SDS011;24609;48.316;16.174;2023-10-31T10:31:13;1.67;;;0.40;;
38859;SDS011;24609;48.316;16.174;2023-10-31T10:33:40;2.70;;;0.80;;
38859;SDS011;24609;48.316;16.174;2023-10-31T10:36:06;3.00;;;0.60;;
38859;SDS011;24609;48.316;16.174;2023-10-31T10:38:35;1.55;;;0.80;;
38859;SDS011;24609;48.316;16.174;2023-10-31T10:41:02;2.15;;;0.70;;
38859;SDS011;24609;48.316;16.174;2023-10-31T10:43:31;2.13;;;0.75;;
38859;SDS011;24609;48.316;16.174;2023-10-31T10:46:02;1.45;;;0.80;;
38859;SDS011;24609;48.316;16.174;2023-10-31T10:48:30;1.30;;;0.70;;
38859;SDS011;24609;48.316;16.174;2023-10-31T10:51:11;2.35;;;0.60;;
38859;SDS011;24609;48.316;16.174;2023-10-31T10:54:08;6.72;;;0.90;;
38859;SDS011;24609;48.316;16.174;2023-10-31T10:56:41;2.33;;;0.68;;
38859;SDS011;24609;48.316;16.174;2023-10-31T11:01:40;1.88;;;0.57;;
38859;SDS011;24609;48.316;16.174;2023-10-31T11:04:07;3.28;;;1.05;;
38859;SDS011;24609;48.316;16.174;2023-10-31T11:06:34;3.83;;;0.80;;
38859;SDS011;24609;48.316;16.174;2023-10-31T11:09:02;12.50;;;1.17;;
38859;SDS011;24609;48.316;16.174;2023-10-31T11:11:31;4.63;;;0.90;;
38859;SDS011;24609;48.316;16.174;2023-10-31T11:13:58;3.05;;;1.10;;
38859;SDS011;24609;48.316;16.174;2023-10-31T11:16:29;4.75;;;1.45;;
38859;SDS011;24609;48.316;16.174;2023-10-31T11:19:02;2.20;;;0.82;;
38859;SDS011;24609;48.316;16.174;2023-10-31T11:21:28;1.48;;;0.68;;
38859;SDS011;24609;48.316;16.174;2023-10-31T11:23:58;4.13;;;0.85;;
38859;SDS011;24609;48.316;16.174;2023-10-31T11:26:29;3.75;;;1.15;;
38859;SDS011;24609;48.316;16.174;2023-10-31T11:29:10;1.60;;;0.80;;
38859;SDS011;24609;48.316;16.174;2023-10-31T11:31:37;2.50;;;1.00;;
38859;SDS011;24609;48.316;16.174;2023-10-31T11:34:03;1.40;;;0.68;;
38859;SDS011;24609;48.316;16.174;2023-10-31T11:36:32;2.88;;;0.70;;
38859;SDS011;24609;48.316;16.174;2023-10-31T11:39:11;0.85;;;0.70;;
38859;SDS011;24609;48.316;16.174;2023-10-31T11:41:40;1.60;;;0.68;;
38859;SDS011;24609;48.316;16.174;2023-10-31T11:44:11;2.85;;;0.60;;
38859;SDS011;24609;48.316;16.174;2023-10-31T11:46:37;1.75;;;0.95;;
38859;SDS011;24609;48.316;16.174;2023-10-31T11:49:02;1.20;;;0.70;;
38859;SDS011;24609;48.316;16.174;2023-10-31T11:51:30;2.75;;;0.80;;
38859;SDS011;24609;48.316;16.174;2023-10-31T11:53:56;7.10;;;1.00;;
38859;SDS011;24609;48.316;16.174;2023-10-31T11:56:21;0.90;;;0.52;;
38859;SDS011;24609;48.316;16.174;2023-10-31T11:58:54;1.88;;;0.80;;
38859;SDS011;24609;48.316;16.174;2023-10-31T12:01:21;1.30;;;0.60;;
38859;SDS011;24609;48.316;16.174;2023-10-31T12:03:46;1.85;;;0.50;;
38859;SDS011;24609;48.316;16.174;2023-10-31T12:06:12;1.65;;;0.60;;
38859;SDS011;24609;48.316;16.174;2023-10-31T12:08:40;1.30;;;0.70;;
38859;SDS011;24609;48.316;16.174;2023-10-31T12:11:14;2.33;;;0.80;;
38859;SDS011;24609;48.316;16.174;2023-10-31T12:13:42;1.40;;;0.70;;
38859;SDS011;24609;48.316;16.174;2023-10-31T12:16:17;0.70;;;0.50;;
38859;SDS011;24609;48.316;16.174;2023-10-31T12:18:43;3.13;;;0.80;;
38859;SDS011;24609;48.316;16.174;2023-10-31T12:21:09;0.70;;;0.43;;
38859;SDS011;24609;48.316;16.174;2023-10-31T12:23:37;2.40;;;0.95;;
38859;SDS011;24609;48.316;16.174;2023-10-31T12:26:03;1.75;;;0.68;;
38859;SDS011;24609;48.316;16.174;2023-10-31T12:28:29;0.68;;;0.63;;
38859;SDS011;24609;48.316;16.174;2023-10-31T12:30:55;2.13;;;0.30;;
38859;SDS011;24609;48.316;16.174;2023-10-31T12:33:22;1.30;;;0.50;;
38859;SDS011;24609;48.316;16.174;2023-10-31T12:35:51;1.20;;;0.53;;
38859;SDS011;24609;48.316;16.174;2023-10-31T12:38:21;1.23;;;0.55;;
38859;SDS011;24609;48.316;16.174;2023-10-31T12:40:47;0.98;;;0.40;;
38859;SDS011;24609;48.316;16.174;2023-10-31T12:43:14;0.65;;;0.50;;
38859;SDS011;24609;48.316;16.174;2023-10-31T12:45:41;1.15;;;0.40;;
38859;SDS011;24609;48.316;16.174;2023-10-31T12:48:07;0.88;;;0.40;;
38859;SDS011;24609;48.316;16.174;2023-10-31T12:50:35;0.88;;;0.45;;
38859;SDS011;24609;48.316;16.174;2023-10-31T12:53:07;1.42;;;0.75;;
38859;SDS011;24609;48.316;16.174;2023-10-31T12:55:38;1.17;;;0.47;;
38859;SDS011;24609;48.316;16.174;2023-10-31T12:58:05;1.27;;;0.77;;
38859;SDS011;24609;48.316;16.174;2023-10-31T13:00:31;1.30;;;0.60;;
38859;SDS011;24609;48.316;16.174;2023-10-31T13:03:03;1.10;;;0.60;;
38859;SDS011;24609;48.316;16.174;2023-10-31T13:05:30;3.80;;;0.90;;
38859;SDS011;24609;48.316;16.174;2023-10-31T13:07:57;2.63;;;0.70;;
38859;SDS011;24609;48.316;16.174;2023-10-31T13:10:25;2.17;;;0.60;;
38859;SDS011;24609;48.316;16.174;2023-10-31T13:12:52;1.70;;;0.63;;
38859;SDS011;24609;48.316;16.174;2023-10-31T13:15:18;1.20;;;0.50;;
38859;SDS011;24609;48.316;16.174;2023-10-31T13:17:49;0.73;;;0.55;;
38859;SDS011;24609;48.316;16.174;2023-10-31T13:20:15;1.10;;;0.50;;
38859;SDS011;24609;48.316;16.174;2023-10-31T13:22:42;2.50;;;0.70;;
38859;SDS011;24609;48.316;16.174;2023-10-31T13:25:09;2.70;;;0.95;;
38859;SDS011;24609;48.316;16.174;2023-10-31T13:27:37;3.97;;;0.90;;
38859;SDS011;24609;48.316;16.174;2023-10-31T13:30:05;2.90;;;0.80;;
38859;SDS011;24609;48.316;16.174;2023-10-31T13:32:32;2.28;;;0.85;;
38859;SDS011;24609;48.316;16.174;2023-10-31T13:34:59;1.40;;;0.80;;
38859;SDS011;24609;48.316;16.174;2023-10-31T13:37:24;3.13;;;1.10;;
38859;SDS011;24609;48.316;16.174;2023-10-31T13:39:50;1.45;;;0.80;;
38859;SDS011;24609;48.316;16.174;2023-10-31T13:42:16;3.80;;;0.93;;
38859;SDS011;24609;48.316;16.174;2023-10-31T13:44:42;1.63;;;0.80;;
38859;SDS011;24609;48.316;16.174;2023-10-31T13:47:08;3.08;;;0.80;;
38859;SDS011;24609;48.316;16.174;2023-10-31T13:49:34;2.45;;;0.98;;
38859;SDS011;24609;48.316;16.174;2023-10-31T13:52:00;3.88;;;0.90;;
38859;SDS011;24609;48.316;16.174;2023-10-31T13:54:26;2.42;;;1.02;;
38859;SDS011;24609;48.316;16.174;2023-10-31T13:56:52;2.00;;;1.10;;
38859;SDS011;24609;48.316;16.174;2023-10-31T13:59:18;1.30;;;1.10;;
38859;SDS011;24609;48.316;16.174;2023-10-31T14:01:45;2.20;;;0.90;;
38859;SDS011;24609;48.316;16.174;2023-10-31T14:04:11;2.78;;;1.20;;
38859;SDS011;24609;48.316;16.174;2023-10-31T14:06:41;1.45;;;1.00;;
38859;SDS011;24609;48.316;16.174;2023-10-31T14:09:08;2.65;;;0.95;;
38859;SDS011;24609;48.316;16.174;2023-10-31T14:11:35;0.95;;;0.80;;
38859;SDS011;24609;48.316;16.174;2023-10-31T14:14:01;1.98;;;0.60;;
38859;SDS011;24609;48.316;16.174;2023-10-31T14:16:41;1.80;;;0.75;;
38859;SDS011;24609;48.316;16.174;2023-10-31T14:19:11;1.85;;;0.82;;
38859;SDS011;24609;48.316;16.174;2023-10-31T14:21:38;3.55;;;0.80;;
38859;SDS011;24609;48.316;16.174;2023-10-31T14:24:04;2.10;;;1.17;;
38859;SDS011;24609;48.316;16.174;2023-10-31T14:26:30;3.58;;;1.00;;
38859;SDS011;24609;48.316;16.174;2023-10-31T14:28:58;1.95;;;1.08;;
38859;SDS011;24609;48.316;16.174;2023-10-31T14:31:23;1.45;;;1.00;;
38859;SDS011;24609;48.316;16.174;2023-10-31T14:33:49;2.22;;;0.90;;